Time;durP1;ratioP1;P1;durP2;ratioP2;P2;SDS_P1;SDS_P2;PMS_P1;PMS_P2;Temp;Humidity;BMP_temperature;BMP_pressure;BME280_temperature;BME280_humidity;BME280_pressure;Samples;Min_cycle;Max_cycle;Signal;HPM_P1;HPM_P2
2023/08/27 00:01:48;;;;;;;3.92;1.95;;;;;;;19.26;62.44;99843.41;10224800;28;20075;-58
2023/08/27 00:06:49;;;;;;;6.05;1.98;;;;;;;19.27;62.60;99781.53;10221519;28;20063;-59
2023/08/27 00:11:51;;;;;;;3.53;1.98;;;;;;;19.28;62.80;99791.38;10218336;28;20051;-59
2023/08/27 00:16:53;;;;;;;3.80;1.67;;;;;;;19.24;63.11;99801.94;10220758;28;20142;-60
2023/08/27 00:21:54;;;;;;;3.42;2.00;;;;;;;19.14;63.06;99782.72;10224443;28;20050;-58
2023/08/27 00:26:56;;;;;;;4.20;1.95;;;;;;;19.05;63.17;99768.66;10219889;28;20531;-62
2023/08/27 00:31:57;;;;;;;6.20;2.13;;;;;;;18.93;63.78;99790.50;10220217;28;20054;-60
2023/08/27 00:37:02;;;;;;;3.88;1.83;;;;;;;18.91;63.82;99764.59;10221079;28;20539;-60
2023/08/27 00:42:04;;;;;;;4.35;1.63;;;;;;;18.75;64.25;99793.41;10225147;28;20050;-59
2023/08/27 00:47:06;;;;;;;2.63;1.40;;;;;;;18.68;64.61;99758.19;10222185;28;20054;-58
2023/08/27 00:52:09;;;;;;;2.92;1.30;;;;;;;18.69;64.63;99759.81;10219883;28;20101;-59
2023/08/27 00:57:11;;;;;;;5.18;1.33;;;;;;;18.73;64.41;99771.88;10223514;28;20054;-59
2023/08/27 01:02:15;;;;;;;4.43;1.48;;;;;;;18.78;64.28;99782.06;10228584;28;20094;-59
2023/08/27 01:07:45;;;;;;;5.22;1.38;;;;;;;18.81;64.52;99790.56;10222665;28;20035;-60
2023/08/27 01:13:04;;;;;;;6.07;1.60;;;;;;;18.75;64.56;99787.97;10243227;28;20488;-59
2023/08/27 01:18:08;;;;;;;3.80;1.35;;;;;;;18.71;64.80;99782.19;10250074;28;20043;-60
2023/08/27 01:23:11;;;;;;;3.60;1.38;;;;;;;18.70;64.93;99798.75;10214174;28;20079;-59
2023/08/27 01:28:48;;;;;;;3.75;1.40;;;;;;;18.65;65.14;99785.88;10215170;28;20043;-59
2023/08/27 01:33:54;;;;;;;7.20;1.55;;;;;;;18.76;64.95;99785.00;10224501;28;20044;-59
2023/08/27 01:38:56;;;;;;;3.40;1.63;;;;;;;18.74;65.05;99753.63;10220015;28;20067;-59
2023/08/27 01:43:58;;;;;;;2.58;1.42;;;;;;;18.62;65.19;99762.69;10216459;28;20040;-59
2023/08/27 01:48:59;;;;;;;2.03;1.33;;;;;;;18.63;65.17;99761.63;10213464;28;20084;-59
2023/08/27 01:54:01;;;;;;;1.33;1.00;;;;;;;18.71;65.11;99760.41;10220763;28;20055;-60
2023/08/27 01:59:02;;;;;;;2.40;1.40;;;;;;;18.75;64.98;99763.47;10216018;28;20048;-60
2023/08/27 02:04:04;;;;;;;4.05;1.42;;;;;;;18.76;65.16;99746.88;10216673;28;20274;-60
2023/08/27 02:09:06;;;;;;;2.50;1.02;;;;;;;18.81;65.12;99735.28;10212332;28;20056;-59
2023/08/27 02:14:07;;;;;;;3.88;1.38;;;;;;;18.83;65.35;99725.78;10220037;28;20095;-60
2023/08/27 02:19:09;;;;;;;2.75;1.35;;;;;;;18.82;65.31;99736.94;10218683;28;20460;-60
2023/08/27 02:24:11;;;;;;;4.00;1.33;;;;;;;18.80;65.56;99750.81;10221783;28;20095;-59
2023/08/27 02:29:14;;;;;;;3.20;1.15;;;;;;;18.84;65.46;99726.63;10220873;28;20058;-60
2023/08/27 02:34:15;;;;;;;2.22;1.02;;;;;;;18.85;65.37;99717.38;10220000;28;20134;-60
2023/08/27 02:39:17;;;;;;;2.25;1.33;;;;;;;18.87;65.34;99701.63;10223298;28;20942;-60
2023/08/27 02:44:18;;;;;;;3.60;1.25;;;;;;;18.90;65.54;99703.00;10224059;28;20039;-60
2023/08/27 02:49:20;;;;;;;6.60;1.42;;;;;;;18.85;65.53;99695.59;10228810;28;20047;-60
2023/08/27 02:54:21;;;;;;;3.20;1.42;;;;;;;18.69;65.95;99710.00;10226450;28;20043;-60
2023/08/27 02:59:22;;;;;;;3.53;1.13;;;;;;;18.43;66.61;99714.97;10224137;28;20039;-60
2023/08/27 03:04:24;;;;;;;1.38;0.85;;;;;;;18.47;66.46;99718.03;10220162;28;20086;-60
2023/08/27 03:09:25;;;;;;;6.47;1.10;;;;;;;18.55;66.22;99709.47;10220737;28;20057;-59
2023/08/27 03:14:27;;;;;;;3.22;0.93;;;;;;;18.51;66.21;99727.38;10224484;28;20043;-59
2023/08/27 03:19:28;;;;;;;3.25;0.90;;;;;;;18.54;65.93;99726.84;10224245;28;20039;-60
2023/08/27 03:24:30;;;;;;;4.00;1.35;;;;;;;18.55;65.98;99723.91;10226524;28;20054;-59
2023/08/27 03:29:31;;;;;;;3.05;1.25;;;;;;;18.39;66.49;99735.56;10220684;28;20099;-59
2023/08/27 03:34:33;;;;;;;2.88;0.95;;;;;;;18.44;66.31;99724.78;10229077;28;20531;-59
2023/08/27 03:39:34;;;;;;;2.72;0.60;;;;;;;18.49;66.12;99711.25;10221886;28;20050;-59
2023/08/27 03:44:36;;;;;;;3.13;0.90;;;;;;;18.56;66.04;99708.38;10222564;28;20051;-60
2023/08/27 03:49:38;;;;;;;4.60;1.10;;;;;;;18.57;66.11;99708.16;10234445;28;20491;-59
2023/08/27 03:54:39;;;;;;;6.38;1.27;;;;;;;18.59;66.15;99707.91;10222977;28;20039;-60
2023/08/27 03:59:41;;;;;;;3.03;0.98;;;;;;;18.59;66.17;99716.06;10219960;28;20480;-59
2023/08/27 04:04:42;;;;;;;4.72;0.95;;;;;;;18.56;66.15;99702.94;10225587;28;20044;-59
2023/08/27 04:09:43;;;;;;;3.83;1.88;;;;;;;18.53;66.16;99714.34;10217041;28;20055;-59
2023/08/27 04:14:45;;;;;;;2.63;1.20;;;;;;;18.49;66.23;99692.22;10228902;28;20079;-59
2023/08/27 04:19:46;;;;;;;2.55;1.20;;;;;;;18.53;66.24;99695.28;10220713;28;20134;-59
2023/08/27 04:24:48;;;;;;;4.00;1.00;;;;;;;18.53;66.16;99685.22;10218231;28;20066;-59
2023/08/27 04:29:49;;;;;;;1.98;1.20;;;;;;;18.50;66.43;99682.16;10224461;28;20054;-68
2023/08/27 04:34:51;;;;;;;2.90;1.58;;;;;;;18.53;66.49;99668.06;10225729;28;20055;-64
2023/08/27 04:39:52;;;;;;;3.45;1.40;;;;;;;18.57;66.31;99648.25;10225488;28;20062;-64
2023/08/27 04:44:54;;;;;;;4.05;1.75;;;;;;;18.54;66.36;99672.41;10228029;28;20055;-64
2023/08/27 04:49:55;;;;;;;3.13;1.88;;;;;;;18.50;66.68;99671.25;10264599;28;20111;-65
2023/08/27 04:54:57;;;;;;;5.07;1.85;;;;;;;18.47;66.79;99664.41;10265136;28;20108;-65
2023/08/27 04:59:58;;;;;;;2.30;1.35;;;;;;;18.51;66.62;99671.03;10260638;28;20055;-64
2023/08/27 05:05:00;;;;;;;3.95;1.30;;;;;;;18.54;66.53;99691.47;10260235;28;20039;-64
2023/08/27 05:10:01;;;;;;;7.55;1.70;;;;;;;18.50;66.93;99693.03;10262233;28;20054;-65
2023/08/27 05:15:03;;;;;;;2.60;1.45;;;;;;;18.38;67.14;99674.88;10266682;28;20079;-64
2023/08/27 05:20:07;;;;;;;3.42;1.95;;;;;;;18.23;67.37;99686.28;10271162;28;20086;-67
2023/08/27 05:25:09;;;;;;;5.13;2.03;;;;;;;18.24;67.50;99684.41;10336870;23;20105;-70
2023/08/27 05:30:14;;;;;;;5.18;1.88;;;;;;;18.10;67.81;99696.63;10300480;28;20062;-68
2023/08/27 05:35:16;;;;;;;4.72;2.47;;;;;;;17.98;68.32;99707.56;10278489;28;20062;-70
2023/08/27 05:40:17;;;;;;;4.53;1.98;;;;;;;17.79;68.93;99702.25;10300176;28;20378;-69
2023/08/27 05:45:18;;;;;;;7.13;2.35;;;;;;;17.78;69.12;99687.00;10283366;28;20367;-72
2023/08/27 05:50:20;;;;;;;3.33;1.55;;;;;;;17.78;68.97;99694.34;10288472;28;20062;-69
2023/08/27 05:55:21;;;;;;;2.70;1.58;;;;;;;17.74;69.21;99682.28;10293444;28;20051;-70
2023/08/27 06:00:23;;;;;;;2.70;1.50;;;;;;;17.95;68.36;99668.06;10296080;28;20259;-69
2023/08/27 06:05:24;;;;;;;1.52;0.98;;;;;;;17.91;68.51;99679.66;10279590;28;20043;-68
2023/08/27 06:10:26;;;;;;;5.60;1.33;;;;;;;18.01;68.41;99666.28;10282544;28;20102;-70
2023/08/27 06:15:27;;;;;;;4.00;1.27;;;;;;;18.30;67.63;99674.44;10277494;28;20098;-71
2023/08/27 06:20:29;;;;;;;3.83;1.08;;;;;;;18.49;67.38;99662.28;10279973;28;20066;-69
2023/08/27 06:25:34;;;;;;;3.67;1.02;;;;;;;18.62;67.19;99659.25;10278897;28;20078;-69
2023/08/27 06:30:40;;;;;;;3.33;1.50;;;;;;;18.84;66.89;99658.56;10279498;28;20126;-68
2023/08/27 06:35:42;;;;;;;3.63;1.48;;;;;;;18.92;66.69;99670.94;10280927;28;20296;-70
2023/08/27 06:40:43;;;;;;;5.53;1.75;;;;;;;19.11;66.29;99666.84;10277752;28;20055;-69
2023/08/27 06:45:45;;;;;;;4.60;1.40;;;;;;;19.33;66.24;99671.53;10287468;28;20055;-74
2023/08/27 06:50:46;;;;;;;4.00;2.08;;;;;;;19.45;65.92;99669.53;10280460;28;20056;-72
2023/08/27 06:55:47;;;;;;;3.10;2.05;;;;;;;19.57;66.06;99661.25;10278690;28;20225;-71
2023/08/27 07:00:49;;;;;;;6.53;2.10;;;;;;;19.67;65.79;99674.16;10275255;28;20254;-73
2023/08/27 07:05:50;;;;;;;3.22;1.95;;;;;;;19.85;65.63;99662.19;10280330;28;20079;-71
2023/08/27 07:10:52;;;;;;;3.25;1.98;;;;;;;20.20;65.39;99678.13;10280827;28;20077;-71
2023/08/27 07:15:53;;;;;;;3.55;2.50;;;;;;;20.38;64.94;99690.63;10283522;28;20059;-71
2023/08/27 07:20:55;;;;;;;6.78;2.72;;;;;;;20.37;64.53;99689.78;10284622;28;20046;-72
2023/08/27 07:25:56;;;;;;;5.20;2.42;;;;;;;20.55;64.54;99704.16;10279191;28;20118;-70
2023/08/27 07:30:58;;;;;;;3.22;2.30;;;;;;;20.46;64.58;99714.72;10299079;28;20268;-70
2023/08/27 07:36:00;;;;;;;4.30;2.47;;;;;;;20.62;64.51;99706.69;10291995;28;20068;-70
2023/08/27 07:41:01;;;;;;;4.75;2.60;;;;;;;20.70;64.00;99698.06;10293542;28;20106;-68
2023/08/27 07:46:03;;;;;;;5.60;2.72;;;;;;;20.85;63.69;99697.34;10285784;28;20390;-68
2023/08/27 07:51:04;;;;;;;6.38;3.78;;;;;;;21.00;63.55;99702.94;10285824;28;20047;-71
2023/08/27 07:56:05;;;;;;;6.15;2.28;;;;;;;20.93;63.89;99700.44;10286805;28;20051;-71
2023/08/27 08:01:07;;;;;;;8.00;2.85;;;;;;;20.82;64.10;99703.34;10283490;28;20049;-73
2023/08/27 08:06:09;;;;;;;4.53;2.30;;;;;;;20.83;63.95;99710.44;10303419;28;20066;-71
2023/08/27 08:11:10;;;;;;;4.10;2.50;;;;;;;20.85;63.69;99702.81;10295182;28;20046;-70
2023/08/27 08:16:12;;;;;;;2.65;1.92;;;;;;;20.86;63.33;99702.56;10284399;28;20070;-70
2023/08/27 08:21:13;;;;;;;4.78;2.53;;;;;;;20.86;63.58;99712.69;10287002;28;20063;-70
2023/08/27 08:26:15;;;;;;;6.28;2.10;;;;;;;20.79;63.48;99718.34;10291819;28;20055;-71
2023/08/27 08:31:16;;;;;;;6.63;2.15;;;;;;;20.89;63.42;99718.44;10287253;28;20303;-69
2023/08/27 08:36:18;;;;;;;4.07;1.50;;;;;;;21.09;62.72;99706.88;10286945;28;20110;-72
2023/08/27 08:41:24;;;;;;;4.20;1.92;;;;;;;21.40;61.74;99698.88;10284977;28;20118;-72
2023/08/27 08:46:32;;;;;;;2.85;1.40;;;;;;;21.70;61.52;99711.09;10288052;28;20101;-71
2023/08/27 08:51:34;;;;;;;3.28;1.02;;;;;;;22.05;61.08;99696.75;10287348;28;20054;-72
2023/08/27 08:56:48;;;;;;;3.08;1.48;;;;;;;22.41;60.12;99699.63;10285018;28;20129;-72
2023/08/27 09:01:49;;;;;;;3.40;1.83;;;;;;;22.27;60.58;99706.72;10285312;28;20108;-72
2023/08/27 09:06:53;;;;;;;2.47;1.10;;;;;;;22.40;59.90;99714.44;10294264;28;20047;-69
2023/08/27 09:11:57;;;;;;;6.15;2.15;;;;;;;22.70;58.81;99729.28;10286565;28;20078;-71
2023/08/27 09:16:58;;;;;;;2.08;0.60;;;;;;;23.12;57.33;99723.59;10286517;28;20339;-70
2023/08/27 09:22:00;;;;;;;2.13;0.90;;;;;;;23.12;56.72;99720.84;10285862;28;20058;-69
2023/08/27 09:27:01;;;;;;;1.85;0.95;;;;;;;23.31;55.92;99715.59;10287365;28;20083;-70
2023/08/27 09:32:03;;;;;;;3.05;1.00;;;;;;;23.32;55.85;99706.31;10284933;28;20109;-72
2023/08/27 09:37:08;;;;;;;5.90;2.05;;;;;;;23.25;55.76;99715.91;10280009;28;20371;-74
2023/08/27 09:42:12;;;;;;;4.70;1.48;;;;;;;23.30;55.19;99691.19;10294540;28;20102;-72
2023/08/27 09:47:14;;;;;;;3.47;2.47;;;;;;;23.30;55.02;99688.44;10284510;28;20102;-70
2023/08/27 09:52:23;;;;;;;4.88;2.88;;;;;;;23.65;54.44;99689.47;10291351;28;20375;-70
2023/08/27 09:57:25;;;;;;;4.93;1.25;;;;;;;24.09;53.80;99675.06;10277683;28;20039;-71
2023/08/27 10:02:26;;;;;;;3.55;1.45;;;;;;;24.24;53.22;99653.00;10288398;28;20114;-72
2023/08/27 10:07:27;;;;;;;1.85;1.00;;;;;;;24.38;52.03;99624.91;10282613;28;20666;-69
2023/08/27 10:12:30;;;;;;;4.68;1.35;;;;;;;24.38;51.12;99630.41;10281906;28;20109;-73
2023/08/27 10:17:32;;;;;;;5.80;3.03;;;;;;;24.25;52.22;99642.81;10278098;28;20056;-73
2023/08/27 10:22:35;;;;;;;3.90;2.10;;;;;;;24.42;52.09;99636.97;10287856;28;20291;-73
2023/08/27 10:27:36;;;;;;;4.45;0.90;;;;;;;24.42;50.97;99625.97;10281908;28;20046;-72
2023/08/27 10:32:38;;;;;;;2.85;1.63;;;;;;;24.47;51.55;99634.19;10282476;28;20077;-72
2023/08/27 10:37:48;;;;;;;5.07;2.65;;;;;;;24.85;50.62;99635.28;10286688;28;20089;-72
2023/08/27 10:42:50;;;;;;;4.70;1.48;;;;;;;25.09;49.19;99629.81;10269742;28;20047;-71
2023/08/27 10:48:04;;;;;;;4.25;1.58;;;;;;;24.97;48.84;99631.31;10295704;28;20264;-68
2023/08/27 10:53:06;;;;;;;5.78;1.88;;;;;;;25.34;49.56;99627.94;10290709;28;20038;-72
2023/08/27 10:58:21;;;;;;;3.90;1.85;;;;;;;25.89;49.41;99614.59;10279342;28;20359;-73
2023/08/27 11:03:23;;;;;;;3.93;2.13;;;;;;;26.35;48.27;99609.59;10279784;28;20521;-73
2023/08/27 11:08:34;;;;;;;6.20;1.65;;;;;;;26.52;48.25;99601.56;10289398;28;20338;-72
2023/08/27 11:13:36;;;;;;;4.95;1.70;;;;;;;26.65;47.71;99598.06;10288535;28;20118;-72
2023/08/27 11:18:49;;;;;;;2.92;1.30;;;;;;;26.71;48.10;99594.09;10292546;28;20046;-71
2023/08/27 11:24:18;;;;;;;3.17;1.70;;;;;;;26.79;47.37;99609.16;10293467;28;20058;-73
2023/08/27 11:29:22;;;;;;;4.25;1.30;;;;;;;26.75;47.22;99621.09;10288520;28;20066;-71
2023/08/27 11:34:24;;;;;;;3.42;1.20;;;;;;;26.51;47.33;99608.22;10288666;28;20347;-71
2023/08/27 11:39:27;;;;;;;3.13;2.20;;;;;;;26.18;47.55;99594.38;10286453;28;20383;-72
2023/08/27 11:44:28;;;;;;;2.83;1.25;;;;;;;26.03;47.62;99602.91;10288171;28;20054;-71
2023/08/27 11:49:35;;;;;;;9.13;1.33;;;;;;;25.92;47.83;99594.75;10282735;28;20051;-73
2023/08/27 11:54:37;;;;;;;4.25;1.13;;;;;;;25.81;48.04;99604.25;10294610;28;20243;-71
2023/08/27 11:59:38;;;;;;;5.97;1.63;;;;;;;25.73;47.92;99615.91;10299037;28;20070;-72
2023/08/27 12:04:42;;;;;;;2.40;1.60;;;;;;;25.75;47.75;99591.69;10288476;28;20146;-72
2023/08/27 12:09:50;;;;;;;4.43;2.10;;;;;;;25.63;48.50;99583.00;10300370;28;20370;-70
2023/08/27 12:14:51;;;;;;;3.70;1.58;;;;;;;25.73;47.92;99586.47;10288136;28;20259;-71
2023/08/27 12:19:53;;;;;;;3.60;1.80;;;;;;;25.68;47.75;99597.53;10287095;28;20046;-72
2023/08/27 12:24:58;;;;;;;3.55;1.33;;;;;;;25.67;47.51;99592.31;10284790;28;20339;-70
2023/08/27 12:30:00;;;;;;;3.37;1.27;;;;;;;25.71;47.19;99591.44;10288345;28;20248;-71
2023/08/27 12:35:02;;;;;;;3.35;1.10;;;;;;;25.51;47.27;99586.19;10287705;28;20088;-72
2023/08/27 12:40:05;;;;;;;3.83;1.48;;;;;;;25.46;47.63;99589.00;10283637;28;20058;-72
2023/08/27 12:45:06;;;;;;;4.57;1.50;;;;;;;25.21;47.72;99609.34;10280897;28;20091;-73
2023/08/27 12:50:08;;;;;;;3.60;1.00;;;;;;;24.60;48.51;99617.06;10281777;28;20110;-73
2023/08/27 12:55:10;;;;;;;1.73;0.50;;;;;;;21.59;57.30;99675.50;10295096;28;20050;-74
2023/08/27 13:00:12;;;;;;;1.95;0.40;;;;;;;19.26;63.54;99673.63;10297818;28;20065;-77
2023/08/27 13:05:13;;;;;;;2.20;0.30;;;;;;;18.43;65.79;99646.94;10284864;28;20043;-76
2023/08/27 13:10:15;;;;;;;3.97;1.27;;;;;;;18.62;66.97;99633.91;10284486;28;20047;-73
2023/08/27 13:15:16;;;;;;;2.10;0.68;;;;;;;18.83;67.75;99657.69;10284379;28;20375;-70
2023/08/27 13:20:18;;;;;;;1.70;0.45;;;;;;;18.68;69.11;99672.94;10282289;28;20291;-73
2023/08/27 13:25:19;;;;;;;0.88;0.40;;;;;;;18.70;70.35;99671.63;10279713;28;20288;-70
2023/08/27 13:30:22;;;;;;;2.60;0.50;;;;;;;18.82;71.21;99668.88;10285949;28;20039;-70
2023/08/27 13:35:24;;;;;;;5.65;2.95;;;;;;;19.11;71.45;99676.94;10287009;28;20066;-68
2023/08/27 13:40:27;;;;;;;3.40;0.70;;;;;;;19.46;71.61;99663.00;10285914;28;20066;-69
2023/08/27 13:45:28;;;;;;;2.42;0.98;;;;;;;19.96;71.47;99659.31;10281831;28;20059;-69
2023/08/27 13:50:30;;;;;;;3.47;1.20;;;;;;;20.50;72.02;99646.78;10294975;28;20118;-69
2023/08/27 13:55:32;;;;;;;3.05;1.30;;;;;;;20.79;71.21;99655.50;10295092;28;20102;-69
2023/08/27 14:00:34;;;;;;;2.78;1.30;;;;;;;20.79;71.95;99669.16;10301256;28;20054;-70
2023/08/27 14:05:36;;;;;;;2.75;1.20;;;;;;;21.07;72.07;99665.31;10296519;28;20055;-70
2023/08/27 14:10:37;;;;;;;2.65;1.10;;;;;;;21.43;71.29;99654.63;10282431;28;20122;-71
2023/08/27 14:15:39;;;;;;;2.38;0.70;;;;;;;21.78;70.68;99644.94;10283419;28;20105;-70
2023/08/27 14:20:41;;;;;;;2.63;1.10;;;;;;;22.04;70.06;99643.13;10283739;28;20047;-70
2023/08/27 14:25:43;;;;;;;1.88;0.80;;;;;;;21.99;69.60;99626.66;10283131;28;20078;-72
2023/08/27 14:30:44;;;;;;;2.03;0.85;;;;;;;21.97;69.82;99639.81;10278988;28;20165;-70
2023/08/27 14:35:46;;;;;;;2.20;0.93;;;;;;;22.02;69.25;99645.31;10294960;28;20082;-72
2023/08/27 14:40:47;;;;;;;2.75;0.77;;;;;;;22.02;68.18;99647.19;10291197;28;20115;-72
2023/08/27 14:45:48;;;;;;;2.75;1.30;;;;;;;22.22;66.88;99647.28;10294341;28;20058;-74
2023/08/27 14:50:50;;;;;;;2.63;0.70;;;;;;;22.21;66.14;99637.41;10292485;28;20065;-71
2023/08/27 14:55:51;;;;;;;2.25;0.70;;;;;;;22.21;66.21;99637.41;10289371;28;20047;-74
2023/08/27 15:00:53;;;;;;;1.20;0.70;;;;;;;22.40;65.56;99623.25;10299979;28;20086;-72
2023/08/27 15:05:54;;;;;;;1.10;0.45;;;;;;;22.33;64.80;99626.22;10284575;28;20078;-72
2023/08/27 15:10:56;;;;;;;0.93;0.40;;;;;;;22.23;64.89;99632.47;10294412;28;20078;-72
2023/08/27 15:15:57;;;;;;;2.92;0.70;;;;;;;22.20;64.29;99630.28;10287272;28;20046;-74
2023/08/27 15:20:59;;;;;;;1.23;0.60;;;;;;;22.32;64.01;99633.63;10287075;28;20149;-74
2023/08/27 15:26:00;;;;;;;1.20;0.50;;;;;;;22.33;63.98;99632.53;10288043;28;20043;-73
2023/08/27 15:31:03;;;;;;;1.30;0.40;;;;;;;22.36;64.10;99628.44;10293034;28;20061;-73
2023/08/27 15:36:04;;;;;;;3.08;0.75;;;;;;;22.49;63.79;99638.03;10302655;28;20111;-70
2023/08/27 15:41:06;;;;;;;1.35;0.50;;;;;;;22.64;63.58;99631.75;10295353;28;20078;-73
2023/08/27 15:46:07;;;;;;;2.28;0.40;;;;;;;22.80;63.22;99629.81;10299342;28;20434;-72
2023/08/27 15:51:09;;;;;;;1.10;0.40;;;;;;;22.82;62.96;99622.13;10298554;28;20043;-74
2023/08/27 15:56:10;;;;;;;1.20;0.30;;;;;;;22.94;62.61;99625.41;10294822;28;20055;-74
2023/08/27 16:01:13;;;;;;;0.82;0.30;;;;;;;22.81;62.31;99620.47;10300802;28;20071;-73
2023/08/27 16:06:14;;;;;;;1.00;0.40;;;;;;;22.85;61.42;99625.16;10297767;28;20055;-73
2023/08/27 16:11:16;;;;;;;2.60;0.30;;;;;;;22.77;60.97;99620.25;10300013;28;20108;-72
2023/08/27 16:16:17;;;;;;;1.48;0.52;;;;;;;22.77;60.89;99612.81;10305222;28;20050;-71
2023/08/27 16:21:18;;;;;;;1.33;0.30;;;;;;;22.73;60.77;99608.19;10298411;28;20047;-74
2023/08/27 16:26:20;;;;;;;2.08;0.30;;;;;;;22.73;59.82;99609.00;10296235;28;20058;-73
2023/08/27 16:31:26;;;;;;;1.35;0.35;;;;;;;22.66;59.93;99608.44;10301225;28;20047;-76
2023/08/27 16:36:28;;;;;;;1.63;0.20;;;;;;;22.48;60.09;99626.25;10295763;28;20302;-70
2023/08/27 16:41:29;;;;;;;0.80;0.32;;;;;;;22.42;59.46;99632.81;10301339;28;20057;-71
2023/08/27 16:46:30;;;;;;;1.25;0.40;;;;;;;22.51;59.36;99641.31;10296340;28;20074;-70
2023/08/27 16:51:32;;;;;;;1.85;0.32;;;;;;;22.46;59.36;99635.84;10300617;28;20358;-70
2023/08/27 16:56:33;;;;;;;2.55;0.47;;;;;;;22.49;59.38;99641.59;10301959;28;20055;-71
2023/08/27 17:01:35;;;;;;;0.70;0.30;;;;;;;22.35;59.92;99645.94;10297782;28;20395;-71
2023/08/27 17:06:36;;;;;;;2.60;0.50;;;;;;;22.17;60.05;99633.56;10295319;28;20052;-70
2023/08/27 17:11:38;;;;;;;1.58;0.30;;;;;;;22.11;60.21;99637.38;10294692;28;20051;-69
2023/08/27 17:16:42;;;;;;;1.05;0.40;;;;;;;22.07;60.23;99642.56;10298032;28;20043;-69
2023/08/27 17:21:43;;;;;;;1.90;0.45;;;;;;;22.12;60.22;99656.28;10283097;28;20046;-68
2023/08/27 17:26:44;;;;;;;2.83;0.30;;;;;;;22.22;60.03;99655.47;10295537;28;20102;-69
2023/08/27 17:31:46;;;;;;;1.27;0.40;;;;;;;22.02;60.32;99661.72;10300126;28;20113;-69
2023/08/27 17:36:47;;;;;;;0.55;0.30;;;;;;;21.96;60.48;99669.09;10297336;28;20046;-70
2023/08/27 17:41:49;;;;;;;4.03;0.90;;;;;;;22.03;60.20;99673.50;10294418;28;20109;-69
2023/08/27 17:46:51;;;;;;;1.65;0.40;;;;;;;21.92;60.53;99689.88;10308265;28;20058;-69
2023/08/27 17:51:52;;;;;;;0.63;0.30;;;;;;;21.78;60.76;99689.56;10293654;28;20122;-69
2023/08/27 17:56:55;;;;;;;0.40;0.30;;;;;;;21.54;59.48;99705.56;10314907;28;20035;-70
2023/08/27 18:01:56;;;;;;;2.40;0.30;;;;;;;21.66;59.38;99696.31;10295797;28;20062;-73
2023/08/27 18:06:57;;;;;;;1.13;0.30;;;;;;;21.66;58.41;99696.31;10294863;28;20051;-72
2023/08/27 18:11:59;;;;;;;1.05;0.30;;;;;;;21.56;58.17;99706.13;10298076;28;20074;-70
2023/08/27 18:17:00;;;;;;;1.02;0.30;;;;;;;21.47;57.54;99704.16;10312423;28;20109;-70
2023/08/27 18:22:02;;;;;;;0.45;0.10;;;;;;;21.49;57.04;99712.91;10316258;28;20081;-70
2023/08/27 18:27:03;;;;;;;0.35;0.17;;;;;;;21.41;56.70;99719.66;10301165;28;20295;-70
2023/08/27 18:32:05;;;;;;;0.25;0.10;;;;;;;21.34;56.91;99721.78;10298864;28;20219;-71
2023/08/27 18:37:06;;;;;;;1.55;0.10;;;;;;;21.16;56.77;99723.84;10292187;28;20047;-74
2023/08/27 18:42:08;;;;;;;1.00;0.20;;;;;;;21.06;56.26;99740.16;10288417;28;20106;-71
2023/08/27 18:47:20;;;;;;;1.27;0.20;;;;;;;21.04;56.33;99744.25;10293569;28;20101;-70
2023/08/27 18:52:22;;;;;;;2.15;0.20;;;;;;;20.97;55.78;99745.28;10298831;28;20043;-70
2023/08/27 18:57:24;;;;;;;1.75;0.10;;;;;;;20.79;55.95;99759.31;10308407;28;20069;-69
2023/08/27 19:02:25;;;;;;;1.02;0.15;;;;;;;20.68;56.15;99763.88;10300861;28;20081;-67
2023/08/27 19:07:26;;;;;;;0.38;0.10;;;;;;;20.65;55.77;99763.53;10296933;28;20057;-69
2023/08/27 19:12:28;;;;;;;0.25;0.20;;;;;;;20.67;56.06;99789.50;10291003;28;20117;-72
2023/08/27 19:17:29;;;;;;;1.48;0.20;;;;;;;20.66;55.96;99807.00;10292961;28;20050;-69
2023/08/27 19:22:31;;;;;;;0.80;0.15;;;;;;;20.62;56.43;99805.00;10290489;28;20057;-70
2023/08/27 19:27:33;;;;;;;3.80;0.20;;;;;;;20.50;56.65;99829.72;10302322;28;20118;-71
2023/08/27 19:32:34;;;;;;;0.68;0.20;;;;;;;20.39;57.19;99826.84;10303476;28;20438;-70
2023/08/27 19:37:36;;;;;;;0.40;0.20;;;;;;;20.21;56.87;99844.34;10305711;28;20320;-70
2023/08/27 19:42:39;;;;;;;0.40;0.20;;;;;;;20.15;57.04;99852.72;10296380;28;20074;-70
2023/08/27 19:47:41;;;;;;;0.20;0.10;;;;;;;20.06;56.48;99840.59;10300254;28;20058;-71
2023/08/27 19:52:43;;;;;;;0.25;0.10;;;;;;;20.10;56.87;99853.50;10315592;28;20068;-71
2023/08/27 19:57:44;;;;;;;0.80;0.10;;;;;;;20.04;57.11;99859.94;10306952;28;20058;-72
2023/08/27 20:02:46;;;;;;;0.20;0.10;;;;;;;20.12;56.86;99862.25;10299453;28;20098;-70
2023/08/27 20:07:47;;;;;;;1.02;0.20;;;;;;;20.19;56.76;99872.97;10292726;28;20071;-72
2023/08/27 20:12:49;;;;;;;2.20;0.20;;;;;;;20.03;57.06;99877.41;10283366;28;20451;-70
2023/08/27 20:17:50;;;;;;;0.40;0.10;;;;;;;19.97;56.87;99876.50;10301928;28;20069;-72
2023/08/27 20:22:51;;;;;;;0.28;0.10;;;;;;;19.95;56.40;99884.09;10292367;28;20055;-73
2023/08/27 20:27:53;;;;;;;2.45;0.17;;;;;;;19.89;56.36;99882.38;10292066;28;21338;-71
2023/08/27 20:32:55;;;;;;;0.57;0.20;;;;;;;19.90;56.54;99883.19;10286181;28;20279;-72
2023/08/27 20:37:56;;;;;;;1.67;0.17;;;;;;;19.86;56.36;99885.59;10292333;28;20347;-73
2023/08/27 20:42:58;;;;;;;0.30;0.15;;;;;;;19.84;56.35;99898.66;10301804;28;20049;-72
2023/08/27 20:48:02;;;;;;;0.38;0.10;;;;;;;19.78;56.43;99897.72;10285096;28;20319;-73
2023/08/27 20:53:03;;;;;;;1.83;0.50;;;;;;;19.87;56.09;99903.63;10288585;28;20078;-72
2023/08/27 20:58:05;;;;;;;0.60;0.17;;;;;;;19.91;56.42;99910.22;10285949;28;20054;-71
2023/08/27 21:03:08;;;;;;;0.20;0.10;;;;;;;19.88;56.50;99916.16;10284628;28;20054;-72
2023/08/27 21:08:09;;;;;;;0.40;0.10;;;;;;;19.73;56.38;99924.13;10288735;28;20046;-73
2023/08/27 21:13:10;;;;;;;0.20;0.10;;;;;;;19.61;56.30;99922.25;10287749;28;20622;-73
2023/08/27 21:18:12;;;;;;;0.65;0.10;;;;;;;19.58;56.20;99928.19;10284117;28;20254;-72
2023/08/27 21:23:13;;;;;;;0.57;0.10;;;;;;;19.55;56.30;99920.50;10285875;28;20090;-69
2023/08/27 21:28:20;;;;;;;0.85;0.10;;;;;;;19.53;56.55;99933.56;10285611;28;20066;-75
2023/08/27 21:33:21;;;;;;;0.68;0.10;;;;;;;19.41;56.57;99927.31;10280460;28;20066;-73
2023/08/27 21:38:23;;;;;;;0.80;0.20;;;;;;;19.33;56.77;99916.81;10278795;28;20051;-73
2023/08/27 21:43:24;;;;;;;0.45;0.20;;;;;;;19.21;57.35;99925.06;10286498;28;20043;-75
2023/08/27 21:48:26;;;;;;;1.05;0.17;;;;;;;19.09;57.53;99919.66;10285190;28;20055;-72
2023/08/27 21:53:28;;;;;;;0.20;0.13;;;;;;;19.01;57.45;99929.03;10286673;28;20352;-72
2023/08/27 21:58:30;;;;;;;1.98;0.30;;;;;;;18.95;57.71;99945.53;10283663;28;20378;-72
2023/08/27 22:03:31;;;;;;;1.50;0.30;;;;;;;18.87;58.68;99944.00;10281446;28;20051;-70
2023/08/27 22:08:32;;;;;;;1.05;0.22;;;;;;;18.74;59.11;99955.97;10292449;28;20362;-71
2023/08/27 22:13:34;;;;;;;4.93;0.30;;;;;;;18.56;59.77;99954.22;10283880;28;20047;-72
2023/08/27 22:18:36;;;;;;;0.55;0.40;;;;;;;18.45;60.16;99951.50;10285041;28;20082;-72
2023/08/27 22:23:37;;;;;;;1.58;0.40;;;;;;;18.30;60.59;99954.69;10280297;28;20355;-71
2023/08/27 22:28:39;;;;;;;1.02;0.30;;;;;;;18.06;61.21;99945.72;10296039;28;20351;-71
2023/08/27 22:33:40;;;;;;;2.25;0.57;;;;;;;18.01;61.37;99958.13;10285791;28;20344;-72
2023/08/27 22:38:42;;;;;;;0.40;0.30;;;;;;;17.93;61.47;99944.03;10280770;28;20113;-72
2023/08/27 22:43:43;;;;;;;1.50;0.40;;;;;;;17.78;61.72;99956.16;10281731;28;20067;-71
2023/08/27 22:48:45;;;;;;;1.13;0.50;;;;;;;17.76;61.87;99958.28;10280156;28;20057;-71
2023/08/27 22:53:46;;;;;;;0.60;0.40;;;;;;;17.67;62.21;99940.63;10280320;28;20043;-73
2023/08/27 22:58:48;;;;;;;1.02;0.32;;;;;;;17.50;62.44;99945.94;10282197;28;20065;-72
2023/08/27 23:03:49;;;;;;;1.35;0.52;;;;;;;17.42;62.84;99938.09;10291480;28;20126;-71
2023/08/27 23:08:50;;;;;;;2.17;0.38;;;;;;;17.36;62.92;99944.47;10295054;28;20343;-72
2023/08/27 23:13:52;;;;;;;0.30;0.20;;;;;;;17.22;63.29;99958.22;10291500;28;20059;-73
2023/08/27 23:18:53;;;;;;;1.67;0.30;;;;;;;17.09;63.89;99971.16;10288467;28;20268;-72
2023/08/27 23:23:54;;;;;;;2.60;0.50;;;;;;;17.01;64.19;99954.09;10287969;28;20359;-72